Mission, Canada
Current Conditions -  °F | °C
As of 9:00 AM on Thursday 27 Nov 2014 (Local Time) from CYXX Reporting Station
Light Rain Light Rain  
Wind Chill: 52°   Ceiling: 4000
Heat Index: 52°   Visibility: 10mi
Dew Point: 52°   Wind: 9mph
Humidity: 100%   Direction: 200°SSW
Pressure: 29.77"   Gusts: NA
Location:  49.13°N, 122.3°W
Report Text: CYXX 271700Z 20008KT 10SM -RA FEW005 SCT025 OVC040 11/11 A2977 RMK SF1SC2SC5 SLP081
Loading
Personal Weather Stations






























Interactive Weather Map New forecast layout! Learn more

10-Day Weather Forecast

Advertisements
Track Severe Weather on mobile